createdAt,value
2017-08-17T00:00:52.749Z,15.40
2017-08-17T00:03:18.995Z,15.60
2017-08-17T00:05:45.246Z,15.30
2017-08-17T00:08:11.526Z,15.67
2017-08-17T00:10:37.782Z,15.40
2017-08-17T00:13:04.070Z,14.80
2017-08-17T00:15:31.064Z,15.57
2017-08-17T00:17:57.328Z,15.93
2017-08-17T00:20:24.357Z,16.60
2017-08-17T00:22:50.644Z,16.93
2017-08-17T00:25:16.932Z,15.63
2017-08-17T00:27:43.194Z,17.17
2017-08-17T00:30:09.524Z,16.43
2017-08-17T00:32:35.818Z,15.73
2017-08-17T00:35:02.862Z,15.30
2017-08-17T00:37:30.095Z,15.40
2017-08-17T00:39:56.593Z,17.17
2017-08-17T00:42:23.090Z,15.80
2017-08-17T00:44:49.558Z,15.43
2017-08-17T00:47:16.039Z,16.03
2017-08-17T00:49:42.517Z,15.87
2017-08-17T00:52:09.041Z,15.40
2017-08-17T00:54:35.534Z,16.70
2017-08-17T00:57:02.797Z,15.90
2017-08-17T00:59:29.293Z,15.50
2017-08-17T01:01:55.801Z,16.70
2017-08-17T01:04:22.411Z,15.13
2017-08-17T01:06:48.908Z,14.50
2017-08-17T01:09:15.387Z,16.37
2017-08-17T01:11:41.869Z,16.30
2017-08-17T01:14:08.346Z,16.70
2017-08-17T01:16:34.785Z,16.17
2017-08-17T01:19:01.290Z,16.53
2017-08-17T01:21:28.528Z,15.17
2017-08-17T01:23:55.773Z,15.60
2017-08-17T01:26:22.253Z,16.53
2017-08-17T01:28:48.741Z,14.70
2017-08-17T01:31:15.244Z,15.53
2017-08-17T01:33:41.723Z,14.80
2017-08-17T01:36:08.221Z,16.07
2017-08-17T01:38:34.714Z,16.70
2017-08-17T01:41:01.222Z,15.67
2017-08-17T01:43:27.704Z,16.83
2017-08-17T01:45:54.210Z,16.13
2017-08-17T01:48:21.430Z,16.20
2017-08-17T01:50:47.931Z,17.40
2017-08-17T01:53:14.423Z,16.07
2017-08-17T01:55:40.926Z,16.67
2017-08-17T01:58:07.433Z,15.83
2017-08-17T02:00:33.984Z,16.40
2017-08-17T02:03:00.511Z,16.47
2017-08-17T02:05:27.001Z,15.30
2017-08-17T02:07:53.522Z,15.20
2017-08-17T02:10:20.010Z,15.17
2017-08-17T02:12:46.489Z,15.40
2017-08-17T02:15:13.677Z,14.63
2017-08-17T02:17:40.159Z,15.60
2017-08-17T02:20:06.632Z,14.70
2017-08-17T02:22:33.118Z,15.53
2017-08-17T02:25:00.322Z,13.00
2017-08-17T02:27:26.790Z,12.43
2017-08-17T02:29:53.272Z,13.80
2017-08-17T02:32:19.765Z,14.10
2017-08-17T02:34:46.489Z,13.80
2017-08-17T02:37:13.020Z,12.83
2017-08-17T02:39:39.474Z,13.07
2017-08-17T02:42:05.991Z,13.80
2017-08-17T02:44:32.501Z,13.13
2017-08-17T02:46:58.981Z,13.53
2017-08-17T02:49:26.172Z,14.00
2017-08-17T02:51:52.621Z,12.83
2017-08-17T02:54:19.070Z,13.60
2017-08-17T02:56:45.572Z,12.70
2017-08-17T02:59:12.030Z,12.07
2017-08-17T03:01:38.482Z,11.87
2017-08-17T03:04:04.947Z,12.10
2017-08-17T03:06:31.446Z,13.03
2017-08-17T03:08:57.937Z,12.30
2017-08-17T03:11:24.430Z,11.73
2017-08-17T03:13:50.921Z,12.43
2017-08-17T03:16:17.409Z,11.80
2017-08-17T03:18:43.849Z,11.60
2017-08-17T03:21:10.350Z,11.83
2017-08-17T03:23:36.806Z,11.20
2017-08-17T03:26:03.309Z,11.20
2017-08-17T03:28:30.646Z,12.13
2017-08-17T03:30:57.102Z,11.23
2017-08-17T03:33:24.323Z,11.50
2017-08-17T03:35:50.790Z,11.73
2017-08-17T03:38:17.262Z,11.60
2017-08-17T03:40:43.716Z,12.30
2017-08-17T03:43:10.179Z,12.90
2017-08-17T03:45:36.631Z,13.30
2017-08-17T03:48:03.109Z,12.20
2017-08-17T03:50:29.578Z,12.60
2017-08-17T03:52:56.086Z,11.97
2017-08-17T03:55:22.551Z,13.70
2017-08-17T03:57:49.001Z,11.77
2017-08-17T04:00:15.450Z,11.20
2017-08-17T04:02:41.907Z,12.40
2017-08-17T04:05:08.414Z,14.07
2017-08-17T04:07:34.874Z,14.93
2017-08-17T04:10:01.366Z,12.50
2017-08-17T04:12:27.838Z,13.20
2017-08-17T04:14:55.097Z,13.07
2017-08-17T04:17:21.539Z,13.50
2017-08-17T04:19:48.037Z,14.00
2017-08-17T04:22:14.481Z,14.10
2017-08-17T04:24:40.938Z,13.50
2017-08-17T04:27:07.421Z,12.70
2017-08-17T04:29:33.986Z,14.23
2017-08-17T04:32:00.450Z,12.20
2017-08-17T04:34:26.945Z,13.33
2017-08-17T04:36:53.463Z,12.33
2017-08-17T04:39:25.870Z,12.13
2017-08-17T04:41:52.417Z,14.80
2017-08-17T04:44:19.647Z,12.50
2017-08-17T04:46:46.153Z,12.87
2017-08-17T04:49:12.634Z,12.20
2017-08-17T04:51:39.121Z,12.27
2017-08-17T04:54:05.601Z,12.20
2017-08-17T04:56:55.350Z,12.07
2017-08-17T04:59:21.608Z,13.23
2017-08-17T05:01:47.893Z,12.40
2017-08-17T05:04:14.371Z,13.40
2017-08-17T05:06:40.831Z,12.83
2017-08-17T05:09:07.301Z,13.93
2017-08-17T05:11:33.809Z,12.60
2017-08-17T05:14:00.385Z,13.63
2017-08-17T05:16:26.863Z,11.80
2017-08-17T05:18:53.314Z,12.03
2017-08-17T05:21:19.791Z,13.13
2017-08-17T05:23:46.285Z,13.07
2017-08-17T05:26:12.729Z,13.43
2017-08-17T05:28:39.219Z,13.47
2017-08-17T05:31:05.700Z,12.33
2017-08-17T05:33:32.145Z,12.20
2017-08-17T05:35:58.616Z,12.80
2017-08-17T05:38:25.094Z,14.10
2017-08-17T05:40:51.587Z,13.00
2017-08-17T05:43:18.021Z,12.67
2017-08-17T05:45:44.501Z,12.30
2017-08-17T05:48:11.179Z,12.17
2017-08-17T05:50:37.650Z,12.80
2017-08-17T05:53:04.225Z,11.80
2017-08-17T05:55:31.617Z,11.90
2017-08-17T05:57:58.074Z,11.57
2017-08-17T06:00:24.647Z,11.60
2017-08-17T06:02:51.983Z,11.83
2017-08-17T06:05:18.455Z,12.60
2017-08-17T06:07:44.917Z,10.77
2017-08-17T06:10:11.362Z,11.83
2017-08-17T06:12:37.813Z,12.90
2017-08-17T06:15:04.318Z,12.63
2017-08-17T06:17:30.770Z,13.83
2017-08-17T06:19:57.252Z,12.30
2017-08-17T06:22:23.694Z,13.23
2017-08-17T06:24:50.182Z,13.20
2017-08-17T06:27:16.811Z,12.80
2017-08-17T06:29:43.387Z,12.53
2017-08-17T06:32:09.963Z,13.20
2017-08-17T06:34:37.194Z,13.20
2017-08-17T06:37:03.986Z,13.00
2017-08-17T06:39:30.475Z,11.60
2017-08-17T06:41:56.953Z,13.03
2017-08-17T06:44:23.411Z,12.77
2017-08-17T06:46:50.044Z,11.00
2017-08-17T06:49:16.540Z,9.90
2017-08-17T06:51:43.804Z,7.90
2017-08-17T06:54:17.005Z,7.97
2017-08-17T06:56:44.037Z,7.10
2017-08-17T06:59:10.285Z,6.30
2017-08-17T07:01:37.483Z,7.20
2017-08-17T07:04:03.839Z,6.17
2017-08-17T07:06:30.156Z,5.77
2017-08-17T07:08:56.441Z,5.70
2017-08-17T07:11:22.743Z,4.93
2017-08-17T07:13:49.762Z,6.00
2017-08-17T07:16:16.111Z,5.57
2017-08-17T07:18:42.399Z,5.50
2017-08-17T07:21:08.677Z,5.20
2017-08-17T07:26:08.892Z,5.50
2017-08-17T07:28:35.161Z,5.10
2017-08-17T07:31:01.546Z,4.97
2017-08-17T07:33:27.796Z,3.70
2017-08-17T07:35:54.798Z,4.43
2017-08-17T07:38:21.061Z,4.10
2017-08-17T07:40:47.522Z,3.53
2017-08-17T07:43:13.806Z,4.63
2017-08-17T07:45:40.082Z,3.43
2017-08-17T07:48:06.363Z,4.23
2017-08-17T07:50:32.630Z,3.47
2017-08-17T07:52:58.914Z,3.80
2017-08-17T07:55:25.945Z,3.90
2017-08-17T07:57:52.302Z,3.90
2017-08-17T08:00:18.638Z,3.10
2017-08-17T08:02:45.888Z,4.07
2017-08-17T08:05:12.430Z,3.67
2017-08-17T08:07:38.910Z,3.80
2017-08-17T08:10:05.370Z,3.77
2017-08-17T08:12:31.899Z,3.93
2017-08-17T08:14:58.402Z,4.10
2017-08-17T08:17:24.880Z,3.63
2017-08-17T08:19:51.425Z,3.40
2017-08-17T08:22:18.682Z,3.60
2017-08-17T08:24:45.930Z,3.90
2017-08-17T08:27:12.446Z,3.80
2017-08-17T08:29:39.010Z,4.07
2017-08-17T08:32:05.582Z,3.30
2017-08-17T08:34:33.654Z,3.80
2017-08-17T08:37:00.248Z,3.00
2017-08-17T08:39:26.734Z,3.50
2017-08-17T08:41:53.325Z,3.57
2017-08-17T08:44:19.805Z,3.60
2017-08-17T08:46:46.338Z,3.50
2017-08-17T08:49:12.803Z,3.07
2017-08-17T08:51:39.302Z,2.70
2017-08-17T08:54:05.832Z,3.07
2017-08-17T08:56:32.370Z,2.83
2017-08-17T08:58:58.840Z,3.20
2017-08-17T09:01:25.297Z,3.53
2017-08-17T09:03:51.812Z,3.13
2017-08-17T09:06:18.318Z,3.20
2017-08-17T09:08:44.809Z,3.53
2017-08-17T09:11:11.278Z,3.50
2017-08-17T09:13:37.753Z,3.60
2017-08-17T09:16:04.338Z,3.97
2017-08-17T09:18:30.828Z,3.80
2017-08-17T09:20:57.314Z,4.30
2017-08-17T09:23:23.834Z,3.63
2017-08-17T09:25:50.370Z,4.13
2017-08-17T09:28:16.835Z,3.80
2017-08-17T09:30:43.373Z,4.67
2017-08-17T09:33:10.581Z,4.40
2017-08-17T09:35:37.134Z,3.60
2017-08-17T09:38:03.602Z,3.87
2017-08-17T09:40:30.066Z,4.00
2017-08-17T09:42:56.513Z,4.70
2017-08-17T09:45:22.955Z,4.23
2017-08-17T09:47:49.425Z,4.10
2017-08-17T09:50:16.608Z,4.10
2017-08-17T09:52:43.088Z,4.93
2017-08-17T09:55:09.618Z,4.20
2017-08-17T09:57:36.119Z,4.27
2017-08-17T10:00:02.861Z,4.57
2017-08-17T10:02:29.347Z,4.20
2017-08-17T10:04:55.855Z,4.43
2017-08-17T10:07:23.200Z,4.50
2017-08-17T10:09:49.670Z,4.40
2017-08-17T10:12:17.013Z,5.17
2017-08-17T10:14:43.576Z,4.20
2017-08-17T10:17:10.029Z,4.80
2017-08-17T10:19:36.509Z,4.13
2017-08-17T10:22:09.045Z,4.93
2017-08-17T10:24:41.414Z,4.80
2017-08-17T10:27:07.910Z,4.77
2017-08-17T10:29:34.465Z,4.23
2017-08-17T10:32:00.907Z,4.70
2017-08-17T10:34:27.378Z,4.20
2017-08-17T10:36:53.881Z,4.83
2017-08-17T10:39:20.418Z,3.80
2017-08-17T10:41:46.889Z,3.90
2017-08-17T10:44:13.367Z,4.93
2017-08-17T10:46:39.833Z,4.40
2017-08-17T10:49:06.497Z,4.03
2017-08-17T10:51:33.701Z,3.83
2017-08-17T10:54:00.229Z,4.30
2017-08-17T10:56:26.781Z,4.80
2017-08-17T10:58:53.349Z,4.03
2017-08-17T11:01:20.693Z,4.00
2017-08-17T11:03:47.170Z,4.20
2017-08-17T11:06:13.665Z,4.00
2017-08-17T11:08:40.957Z,4.00
2017-08-17T11:11:07.423Z,4.60
2017-08-17T11:13:33.913Z,4.10
2017-08-17T11:16:00.630Z,4.60
2017-08-17T11:18:27.137Z,4.20
2017-08-17T11:20:53.671Z,3.93
2017-08-17T11:23:20.146Z,3.93
2017-08-17T11:25:46.633Z,3.97
2017-08-17T11:28:13.878Z,4.33
2017-08-17T11:30:40.358Z,4.40
2017-08-17T11:33:06.957Z,4.30
2017-08-17T11:35:33.437Z,4.27
2017-08-17T11:37:59.954Z,3.70
2017-08-17T11:40:26.411Z,4.10
2017-08-17T11:42:52.847Z,4.40
2017-08-17T11:45:20.141Z,4.10
2017-08-17T11:47:46.683Z,3.83
2017-08-17T11:50:13.862Z,4.20
2017-08-17T11:52:41.709Z,3.90
2017-08-17T11:55:08.785Z,4.77
2017-08-17T11:57:35.341Z,4.20
2017-08-17T12:00:01.915Z,4.33
2017-08-17T12:02:28.366Z,4.00
2017-08-17T12:04:54.818Z,4.20
2017-08-17T12:07:21.320Z,4.20
2017-08-17T12:09:48.510Z,4.53
2017-08-17T12:12:15.110Z,4.57
2017-08-17T12:14:42.334Z,4.43
2017-08-17T12:17:09.546Z,4.70
2017-08-17T12:19:36.013Z,4.20
2017-08-17T12:22:03.266Z,4.10
2017-08-17T12:24:29.696Z,4.30
2017-08-17T12:26:56.397Z,4.80
2017-08-17T12:29:23.045Z,3.57
2017-08-17T12:31:49.621Z,3.20
2017-08-17T12:34:16.181Z,3.40
2017-08-17T12:36:42.673Z,3.00
2017-08-17T12:39:10.133Z,3.37
2017-08-17T12:41:37.629Z,3.10
2017-08-17T12:44:04.756Z,2.80
2017-08-17T12:46:31.228Z,2.80
2017-08-17T12:48:58.133Z,2.27
2017-08-17T12:51:24.689Z,2.83
2017-08-17T12:53:51.538Z,4.10
2017-08-17T12:56:18.089Z,3.40
2017-08-17T12:58:44.591Z,2.60
2017-08-17T13:01:11.213Z,3.20
2017-08-17T13:03:38.171Z,3.40
2017-08-17T13:06:04.695Z,3.00
2017-08-17T13:08:31.303Z,3.07
2017-08-17T13:10:58.714Z,3.10
2017-08-17T13:13:25.162Z,3.23
2017-08-17T13:15:51.701Z,3.50
2017-08-17T13:18:18.260Z,3.50
2017-08-17T13:20:44.748Z,2.80
2017-08-17T13:23:11.202Z,3.17
2017-08-17T13:25:37.810Z,2.83
2017-08-17T13:28:04.276Z,3.13
2017-08-17T13:30:30.864Z,2.80
2017-08-17T13:32:57.353Z,3.07
2017-08-17T13:35:23.864Z,3.63
2017-08-17T13:37:50.526Z,3.37
2017-08-17T13:40:17.021Z,3.10
2017-08-17T13:42:43.602Z,5.00
2017-08-17T13:45:10.044Z,3.17
2017-08-17T13:47:36.629Z,3.03
2017-08-17T13:50:03.117Z,2.43
2017-08-17T13:52:29.586Z,2.70
2017-08-17T13:54:56.029Z,3.20
2017-08-17T13:57:22.506Z,3.40
2017-08-17T13:59:49.729Z,3.40
2017-08-17T14:02:16.249Z,3.43
2017-08-17T14:04:42.739Z,3.63
2017-08-17T14:07:09.257Z,3.50
2017-08-17T14:09:35.694Z,3.27
2017-08-17T14:12:02.936Z,3.70
2017-08-17T14:14:30.196Z,3.30
2017-08-17T14:16:56.697Z,3.43
2017-08-17T14:19:23.239Z,3.73
2017-08-17T14:21:49.763Z,2.80
2017-08-17T14:24:16.507Z,2.80
2017-08-17T14:26:42.994Z,2.90
2017-08-17T14:29:09.449Z,2.60
2017-08-17T14:31:36.009Z,2.67
2017-08-17T14:34:02.518Z,2.60
2017-08-17T14:36:28.945Z,3.20
2017-08-17T14:38:55.453Z,2.90
2017-08-17T14:41:21.913Z,2.60
2017-08-17T14:43:48.430Z,2.60
2017-08-17T14:46:14.921Z,2.30
2017-08-17T14:48:41.392Z,2.60
2017-08-17T14:51:07.927Z,2.67
2017-08-17T14:53:34.434Z,2.50
2017-08-17T14:56:00.922Z,2.40
2017-08-17T14:58:27.409Z,2.43
2017-08-17T15:00:54.586Z,2.50
2017-08-17T15:03:21.042Z,3.17
2017-08-17T15:05:47.545Z,2.70
2017-08-17T15:08:14.018Z,2.90
2017-08-17T15:10:40.509Z,2.60
2017-08-17T15:13:07.033Z,2.77
2017-08-17T15:15:33.547Z,3.37
2017-08-17T15:18:00.002Z,3.50
2017-08-17T15:20:26.654Z,2.87
2017-08-17T15:22:53.106Z,3.50
2017-08-17T15:25:19.559Z,3.20
2017-08-17T15:27:46.914Z,3.30
2017-08-17T15:30:14.270Z,3.40
2017-08-17T15:32:40.980Z,4.30
2017-08-17T15:35:07.503Z,4.30
2017-08-17T15:37:33.989Z,4.77
2017-08-17T15:40:00.498Z,5.20
2017-08-17T15:42:27.241Z,4.97
2017-08-17T15:44:53.883Z,5.30
2017-08-17T15:47:20.382Z,5.47
2017-08-17T15:49:46.857Z,4.70
2017-08-17T15:52:13.463Z,4.50
2017-08-17T15:54:39.923Z,4.53
2017-08-17T15:57:06.417Z,4.47
2017-08-17T15:59:33.079Z,5.20
2017-08-17T16:01:59.580Z,4.50
2017-08-17T16:04:26.310Z,4.60
2017-08-17T16:06:52.784Z,4.53
2017-08-17T16:09:19.312Z,4.73
2017-08-17T16:11:45.870Z,5.00
2017-08-17T16:14:12.365Z,4.53
2017-08-17T16:16:38.882Z,4.83
2017-08-17T16:19:05.499Z,5.17
2017-08-17T16:21:31.958Z,5.57
2017-08-17T16:23:58.471Z,5.33
2017-08-17T16:26:25.119Z,5.97
2017-08-17T16:28:51.662Z,5.20
2017-08-17T16:31:19.351Z,4.73
2017-08-17T16:33:45.872Z,5.03
2017-08-17T16:36:12.341Z,5.10
2017-08-17T16:38:38.993Z,4.47
2017-08-17T16:41:05.510Z,4.60
2017-08-17T16:43:32.028Z,4.40
2017-08-17T16:45:58.543Z,4.40
2017-08-17T16:48:25.042Z,5.10
2017-08-17T16:50:51.541Z,5.13
2017-08-17T16:53:18.025Z,4.80
2017-08-17T16:55:44.550Z,4.60
2017-08-17T16:58:11.120Z,4.50
2017-08-17T17:00:37.645Z,4.47
2017-08-17T17:03:04.112Z,4.73
2017-08-17T17:05:30.617Z,4.47
2017-08-17T17:07:57.098Z,4.07
2017-08-17T17:10:23.779Z,4.53
2017-08-17T17:12:50.347Z,4.40
2017-08-17T17:15:16.824Z,4.93
2017-08-17T17:17:43.309Z,3.67
2017-08-17T17:20:09.852Z,4.00
2017-08-17T17:22:36.422Z,4.07
2017-08-17T17:25:02.904Z,4.37
2017-08-17T17:27:29.397Z,3.70
2017-08-17T17:29:55.885Z,4.13
2017-08-17T17:32:22.365Z,4.30
2017-08-17T17:34:48.857Z,3.73
2017-08-17T17:37:16.091Z,3.53
2017-08-17T17:39:42.541Z,4.00
2017-08-17T17:42:09.782Z,4.00
2017-08-17T17:44:36.321Z,4.50
2017-08-17T17:47:03.487Z,3.80
2017-08-17T17:49:29.980Z,3.90
2017-08-17T17:51:56.453Z,4.37
2017-08-17T17:54:22.918Z,4.00
2017-08-17T17:56:49.402Z,4.40
2017-08-17T17:59:15.890Z,3.80
2017-08-17T18:01:42.466Z,4.27
2017-08-17T18:04:09.733Z,4.20
2017-08-17T18:06:36.354Z,3.80
2017-08-17T18:09:02.858Z,3.97
2017-08-17T18:11:29.341Z,4.30
2017-08-17T18:13:55.884Z,4.20
2017-08-17T18:16:22.502Z,3.93
2017-08-17T18:18:49.742Z,4.10
2017-08-17T18:21:16.938Z,3.70
2017-08-17T18:23:43.466Z,3.80
2017-08-17T18:26:10.048Z,3.60
2017-08-17T18:28:36.700Z,5.07
2017-08-17T18:31:03.456Z,3.67
2017-08-17T18:33:29.997Z,4.03
2017-08-17T18:35:56.446Z,3.47
2017-08-17T18:38:23.049Z,3.17
2017-08-17T18:40:49.541Z,3.30
2017-08-17T18:43:16.033Z,3.17
2017-08-17T18:45:42.514Z,3.17
2017-08-17T18:48:09.039Z,3.47
2017-08-17T18:50:35.512Z,3.10
2017-08-17T18:53:02.116Z,3.17
2017-08-17T18:55:28.602Z,4.30
2017-08-17T18:57:55.182Z,4.30
2017-08-17T19:00:21.693Z,3.93
2017-08-17T19:02:48.175Z,4.17
2017-08-17T19:05:15.401Z,4.00
2017-08-17T19:07:41.893Z,4.43
2017-08-17T19:10:08.366Z,4.10
2017-08-17T19:12:34.825Z,4.10
2017-08-17T19:15:01.314Z,4.10
2017-08-17T19:17:27.873Z,3.80
2017-08-17T19:19:54.377Z,4.63
2017-08-17T19:22:20.875Z,4.60
2017-08-17T19:24:47.326Z,4.63
2017-08-17T19:27:13.827Z,4.40
2017-08-17T19:29:40.349Z,4.40
2017-08-17T19:32:06.887Z,4.33
2017-08-17T19:34:33.445Z,3.80
2017-08-17T19:36:59.934Z,4.00
2017-08-17T19:39:26.481Z,4.80
2017-08-17T19:41:53.076Z,5.10
2017-08-17T19:44:19.618Z,4.00
2017-08-17T19:46:46.189Z,4.37
2017-08-17T19:49:13.480Z,3.40
2017-08-17T19:51:40.137Z,4.20
2017-08-17T19:54:06.616Z,4.70
2017-08-17T19:56:33.241Z,4.27
2017-08-17T19:58:59.813Z,3.90
2017-08-17T20:01:26.336Z,4.67
2017-08-17T20:03:52.901Z,4.00
2017-08-17T20:06:19.377Z,4.27
2017-08-17T20:08:45.929Z,4.10
2017-08-17T20:11:12.429Z,4.37
2017-08-17T20:13:39.078Z,3.90
2017-08-17T20:16:05.733Z,3.67
2017-08-17T20:18:32.536Z,4.23
2017-08-17T20:20:59.140Z,4.20
2017-08-17T20:23:25.690Z,4.70
2017-08-17T20:25:52.245Z,4.50
2017-08-17T20:28:18.754Z,4.03
2017-08-17T20:30:45.234Z,4.70
2017-08-17T20:33:11.734Z,4.70
2017-08-17T20:35:39.175Z,4.63
2017-08-17T20:38:05.626Z,4.07
2017-08-17T20:40:32.144Z,4.67
2017-08-17T20:42:58.597Z,4.63
2017-08-17T20:45:25.070Z,4.60
2017-08-17T20:47:51.584Z,4.43
2017-08-17T20:50:18.062Z,5.17
2017-08-17T20:52:44.554Z,4.40
2017-08-17T20:55:11.001Z,4.10
2017-08-17T20:57:37.512Z,4.47
2017-08-17T21:00:03.975Z,4.40
2017-08-17T21:02:30.457Z,4.60
2017-08-17T21:04:56.894Z,4.23
2017-08-17T21:07:23.375Z,4.57
2017-08-17T21:09:49.857Z,4.47
2017-08-17T21:12:16.395Z,3.93
2017-08-17T21:14:42.849Z,3.90
2017-08-17T21:17:09.285Z,3.83
2017-08-17T21:19:35.842Z,4.33
2017-08-17T21:22:02.585Z,3.90
2017-08-17T21:24:29.148Z,3.63
2017-08-17T21:26:56.349Z,3.77
2017-08-17T21:29:22.832Z,3.50
2017-08-17T21:31:49.288Z,3.70
2017-08-17T21:34:15.755Z,3.27
2017-08-17T21:36:42.308Z,3.33
2017-08-17T21:39:08.866Z,2.63
2017-08-17T21:41:35.389Z,3.27
2017-08-17T21:44:01.941Z,3.50
2017-08-17T21:46:28.453Z,3.40
2017-08-17T21:48:55.722Z,3.30
2017-08-17T21:51:22.183Z,3.40
2017-08-17T21:53:48.725Z,2.53
2017-08-17T21:56:15.379Z,2.97
2017-08-17T21:58:42.612Z,3.07
2017-08-17T22:01:09.125Z,2.90
2017-08-17T22:03:35.604Z,3.00
2017-08-17T22:06:02.236Z,2.83
2017-08-17T22:08:28.729Z,3.23
2017-08-17T22:10:55.230Z,3.50
2017-08-17T22:13:21.710Z,2.80
2017-08-17T22:15:48.190Z,2.70
2017-08-17T22:18:14.697Z,3.10
2017-08-17T22:20:41.225Z,2.90
2017-08-17T22:23:07.801Z,3.30
2017-08-17T22:25:34.281Z,4.40
2017-08-17T22:28:00.798Z,3.03
2017-08-17T22:30:27.330Z,2.80
2017-08-17T22:32:53.826Z,2.80
2017-08-17T22:35:20.313Z,2.63
2017-08-17T22:37:46.835Z,2.87
2017-08-17T22:40:13.310Z,2.70
2017-08-17T22:42:39.849Z,3.07
2017-08-17T22:45:06.462Z,3.13
2017-08-17T22:47:33.406Z,2.43
2017-08-17T22:49:59.873Z,3.13
2017-08-17T22:52:26.454Z,2.90
2017-08-17T22:54:53.016Z,2.90
2017-08-17T22:57:19.514Z,3.20
2017-08-17T22:59:45.974Z,3.00
2017-08-17T23:02:13.188Z,3.10
2017-08-17T23:04:39.648Z,3.00
2017-08-17T23:07:06.167Z,2.73
2017-08-17T23:09:32.661Z,3.00
2017-08-17T23:11:59.166Z,3.20
2017-08-17T23:14:25.720Z,3.00
2017-08-17T23:16:52.194Z,3.23
2017-08-17T23:19:18.735Z,2.80
2017-08-17T23:21:45.943Z,3.40
2017-08-17T23:24:12.523Z,3.00
2017-08-17T23:26:38.989Z,2.50
2017-08-17T23:29:05.604Z,2.90
2017-08-17T23:31:32.141Z,3.50
2017-08-17T23:33:58.634Z,3.07
2017-08-17T23:36:25.118Z,3.67
2017-08-17T23:38:51.605Z,3.80
2017-08-17T23:41:18.105Z,3.90
2017-08-17T23:43:44.620Z,3.20
2017-08-17T23:46:11.138Z,3.33
2017-08-17T23:48:37.634Z,3.50
2017-08-17T23:51:04.197Z,3.40
2017-08-17T23:53:30.680Z,3.93
2017-08-17T23:55:57.209Z,3.60
2017-08-17T23:58:23.793Z,3.93
